sensor_id;sensor_type;location;lat;lon;timestamp;pressure;altitude;pressure_sealevel;temperature;humidity
10476;BME280;26166;48.264;11.436;2022-09-27T00:00:46;94639.97;;;20.37;52.93
10476;BME280;26166;48.264;11.436;2022-09-27T00:03:47;94643.72;;;20.36;52.86
10476;BME280;26166;48.264;11.436;2022-09-27T00:06:47;94631.19;;;20.37;52.62
10476;BME280;26166;48.264;11.436;2022-09-27T00:09:47;94625.84;;;20.37;52.54
10476;BME280;26166;48.264;11.436;2022-09-27T00:12:47;94618.66;;;20.37;52.66
10476;BME280;26166;48.264;11.436;2022-09-27T00:15:54;94619.72;;;20.36;52.73
10476;BME280;26166;48.264;11.436;2022-09-27T00:18:57;94611.72;;;20.36;52.99
10476;BME280;26166;48.264;11.436;2022-09-27T00:21:59;94624.22;;;20.36;53.04
10476;BME280;26166;48.264;11.436;2022-09-27T00:25:00;94611.72;;;20.36;52.84
10476;BME280;26166;48.264;11.436;2022-09-27T00:28:00;94609.31;;;20.35;52.87
10476;BME280;26166;48.264;11.436;2022-09-27T00:31:01;94604.75;;;20.35;52.84
10476;BME280;26166;48.264;11.436;2022-09-27T00:34:01;94600.22;;;20.36;53.14
10476;BME280;26166;48.264;11.436;2022-09-27T00:37:02;94604.75;;;20.35;53.01
10476;BME280;26166;48.264;11.436;2022-09-27T00:40:02;94597.84;;;20.34;53.02
10476;BME280;26166;48.264;11.436;2022-09-27T00:43:04;94604.75;;;20.35;52.88
10476;BME280;26166;48.264;11.436;2022-09-27T00:46:08;94603.16;;;20.34;52.88
10476;BME280;26166;48.264;11.436;2022-09-27T00:55:23;94594.09;;;20.35;52.81
10476;BME280;26166;48.264;11.436;2022-09-27T00:58:29;94586.09;;;20.35;52.70
10476;BME280;26166;48.264;11.436;2022-09-27T01:01:31;94583.44;;;20.35;52.78
10476;BME280;26166;48.264;11.436;2022-09-27T01:04:31;94580.75;;;20.35;52.96
10476;BME280;26166;48.264;11.436;2022-09-27T01:07:32;94586.09;;;20.35;52.87
10476;BME280;26166;48.264;11.436;2022-09-27T01:10:34;94572.75;;;20.35;52.98
10476;BME280;26166;48.264;11.436;2022-09-27T01:29:59;94554.38;;;20.34;52.90
10476;BME280;26166;48.264;11.436;2022-09-27T01:42:44;94560.00;;;20.32;52.79
10476;BME280;26166;48.264;11.436;2022-09-27T01:45:57;94553.59;;;20.33;52.83
10476;BME280;26166;48.264;11.436;2022-09-27T01:48:58;94550.91;;;20.33;52.70
10476;BME280;26166;48.264;11.436;2022-09-27T01:52:01;94558.91;;;20.33;52.90
10476;BME280;26166;48.264;11.436;2022-09-27T01:55:05;94541.31;;;20.32;52.87
10476;BME280;26166;48.264;11.436;2022-09-27T02:01:10;94556.25;;;20.33;53.07
10476;BME280;26166;48.264;11.436;2022-09-27T02:04:12;94545.84;;;20.32;53.05
10476;BME280;26166;48.264;11.436;2022-09-27T02:07:17;94547.72;;;20.31;52.97
10476;BME280;26166;48.264;11.436;2022-09-27T02:10:20;94547.72;;;20.31;53.01
10476;BME280;26166;48.264;11.436;2022-09-27T02:13:57;94551.16;;;20.32;52.98
10476;BME280;26166;48.264;11.436;2022-09-27T02:19:54;94553.03;;;20.31;53.10
10476;BME280;26166;48.264;11.436;2022-09-27T02:23:05;94545.84;;;20.32;53.02
10476;BME280;26166;48.264;11.436;2022-09-27T02:29:32;94541.31;;;20.32;52.97
10476;BME280;26166;48.264;11.436;2022-09-27T02:32:33;94522.66;;;20.32;52.99
10476;BME280;26166;48.264;11.436;2022-09-27T02:35:34;94520.78;;;20.33;52.88
10476;BME280;26166;48.264;11.436;2022-09-27T02:38:34;94510.94;;;20.33;52.83
10476;BME280;26166;48.264;11.436;2022-09-27T02:41:34;94505.59;;;20.33;52.87
10476;BME280;26166;48.264;11.436;2022-09-27T02:44:35;94502.66;;;20.35;52.89
10476;BME280;26166;48.264;11.436;2022-09-27T02:54:06;94507.97;;;20.35;52.96
10476;BME280;26166;48.264;11.436;2022-09-27T03:00:11;94498.91;;;20.36;53.10
10476;BME280;26166;48.264;11.436;2022-09-27T03:03:56;94488.53;;;20.34;53.00
10476;BME280;26166;48.264;11.436;2022-09-27T03:06:36;94494.41;;;20.36;52.87
10476;BME280;26166;48.264;11.436;2022-09-27T03:09:41;94486.41;;;20.36;52.97
10476;BME280;26166;48.264;11.436;2022-09-27T03:12:42;94491.72;;;20.36;52.85
10476;BME280;26166;48.264;11.436;2022-09-27T03:15:43;94492.53;;;20.37;52.95
10476;BME280;26166;48.264;11.436;2022-09-27T03:18:43;94496.00;;;20.37;52.76
10476;BME280;26166;48.264;11.436;2022-09-27T03:21:43;94481.56;;;20.38;52.67
10476;BME280;26166;48.264;11.436;2022-09-27T03:24:43;94477.84;;;20.39;52.94
10476;BME280;26166;48.264;11.436;2022-09-27T03:27:44;94478.13;;;20.38;52.87
10476;BME280;26166;48.264;11.436;2022-09-27T03:30:45;94482.66;;;20.37;52.81
10476;BME280;26166;48.264;11.436;2022-09-27T03:33:45;94485.03;;;20.39;53.00
10476;BME280;26166;48.264;11.436;2022-09-27T03:36:46;94481.56;;;20.38;52.95
10476;BME280;26166;48.264;11.436;2022-09-27T03:39:46;94476.25;;;20.38;52.87
10476;BME280;26166;48.264;11.436;2022-09-27T03:42:46;94470.13;;;20.38;53.03
10476;BME280;26166;48.264;11.436;2022-09-27T03:45:49;94464.78;;;20.38;52.92
10476;BME280;26166;48.264;11.436;2022-09-27T03:48:49;94465.56;;;20.38;52.94
10476;BME280;26166;48.264;11.436;2022-09-27T03:51:49;94454.91;;;20.38;53.03
10476;BME280;26166;48.264;11.436;2022-09-27T03:54:49;94453.84;;;20.39;53.00
10476;BME280;26166;48.264;11.436;2022-09-27T03:57:50;94460.25;;;20.38;52.88
10476;BME280;26166;48.264;11.436;2022-09-27T04:00:50;94463.72;;;20.39;52.97
10476;BME280;26166;48.264;11.436;2022-09-27T04:03:51;94452.25;;;20.38;52.84
10476;BME280;26166;48.264;11.436;2022-09-27T04:06:51;94454.91;;;20.38;52.86
10476;BME280;26166;48.264;11.436;2022-09-27T04:09:51;94449.59;;;20.38;52.88
10476;BME280;26166;48.264;11.436;2022-09-27T04:12:51;94444.25;;;20.38;52.78
10476;BME280;26166;48.264;11.436;2022-09-27T04:15:51;94445.84;;;20.39;52.96
10476;BME280;26166;48.264;11.436;2022-09-27T04:18:53;94455.72;;;20.39;52.91
10476;BME280;26166;48.264;11.436;2022-09-27T04:21:53;94451.16;;;20.39;52.90
10476;BME280;26166;48.264;11.436;2022-09-27T04:24:53;94445.84;;;20.39;53.05
10476;BME280;26166;48.264;11.436;2022-09-27T04:27:53;94444.25;;;20.38;52.92
10476;BME280;26166;48.264;11.436;2022-09-27T04:30:54;94454.91;;;20.38;52.87
10476;BME280;26166;48.264;11.436;2022-09-27T04:33:56;94451.16;;;20.39;53.09
10476;BME280;26166;48.264;11.436;2022-09-27T04:36:57;94448.50;;;20.39;53.09
10476;BME280;26166;48.264;11.436;2022-09-27T04:39:58;94445.03;;;20.39;52.90
10476;BME280;26166;48.264;11.436;2022-09-27T04:42:58;94443.16;;;20.39;52.90
10476;BME280;26166;48.264;11.436;2022-09-27T04:46:00;94443.72;;;20.41;52.88
10476;BME280;26166;48.264;11.436;2022-09-27T04:49:01;94447.44;;;20.40;52.96
10476;BME280;26166;48.264;11.436;2022-09-27T04:52:01;94458.91;;;20.41;52.95
10476;BME280;26166;48.264;11.436;2022-09-27T04:55:06;94465.84;;;20.42;52.70
10476;BME280;26166;48.264;11.436;2022-09-27T04:58:07;94463.97;;;20.42;52.72
10476;BME280;26166;48.264;11.436;2022-09-27T05:01:07;94462.09;;;20.43;52.72
10476;BME280;26166;48.264;11.436;2022-09-27T05:04:09;94470.91;;;20.44;52.91
10476;BME280;26166;48.264;11.436;2022-09-27T05:07:10;94476.22;;;20.44;52.74
10476;BME280;26166;48.264;11.436;2022-09-27T05:10:12;94478.09;;;20.43;52.54
10476;BME280;26166;48.264;11.436;2022-09-27T05:13:13;94477.31;;;20.42;52.58
10476;BME280;26166;48.264;11.436;2022-09-27T05:16:14;94489.56;;;20.44;52.57
10476;BME280;26166;48.264;11.436;2022-09-27T05:19:14;94485.31;;;20.42;52.54
10476;BME280;26166;48.264;11.436;2022-09-27T05:22:16;94489.56;;;20.44;52.68
10476;BME280;26166;48.264;11.436;2022-09-27T05:25:16;94482.63;;;20.42;52.68
10476;BME280;26166;48.264;11.436;2022-09-27T05:28:17;94487.97;;;20.42;52.60
10476;BME280;26166;48.264;11.436;2022-09-27T05:31:17;94497.56;;;20.44;52.41
10476;BME280;26166;48.264;11.436;2022-09-27T05:34:19;94491.72;;;20.41;52.70
10476;BME280;26166;48.264;11.436;2022-09-27T05:37:20;94500.50;;;20.42;52.67
10476;BME280;26166;48.264;11.436;2022-09-27T05:40:20;94493.31;;;20.42;53.23
10476;BME280;26166;48.264;11.436;2022-09-27T05:43:22;94501.81;;;20.45;53.01
10476;BME280;26166;48.264;11.436;2022-09-27T05:46:24;94497.84;;;20.42;53.28
10476;BME280;26166;48.264;11.436;2022-09-27T05:49:24;94507.72;;;20.41;53.10
10476;BME280;26166;48.264;11.436;2022-09-27T05:52:25;94512.25;;;20.41;53.17
10476;BME280;26166;48.264;11.436;2022-09-27T05:55:25;94522.09;;;20.40;53.13
10476;BME280;26166;48.264;11.436;2022-09-27T05:58:25;94531.16;;;20.39;53.33
10476;BME280;26166;48.264;11.436;2022-09-27T06:01:27;94531.16;;;20.39;53.51
10476;BME280;26166;48.264;11.436;2022-09-27T06:04:27;94539.16;;;20.39;53.41
10476;BME280;26166;48.264;11.436;2022-09-27T06:07:28;94538.38;;;20.39;53.42
10476;BME280;26166;48.264;11.436;2022-09-27T06:10:30;94550.13;;;20.38;53.47
10476;BME280;26166;48.264;11.436;2022-09-27T06:13:30;94544.78;;;20.38;53.53
10476;BME280;26166;48.264;11.436;2022-09-27T06:16:32;94550.13;;;20.38;53.43
10476;BME280;26166;48.264;11.436;2022-09-27T06:19:32;94544.78;;;20.38;53.36
10476;BME280;26166;48.264;11.436;2022-09-27T06:22:33;94554.66;;;20.37;53.25
10476;BME280;26166;48.264;11.436;2022-09-27T06:25:33;94562.66;;;20.37;53.36
10476;BME280;26166;48.264;11.436;2022-09-27T06:28:34;94570.66;;;20.37;53.39
10476;BME280;26166;48.264;11.436;2022-09-27T06:31:34;94562.66;;;20.37;53.12
10476;BME280;26166;48.264;11.436;2022-09-27T06:34:35;94573.31;;;20.37;52.96
10476;BME280;26166;48.264;11.436;2022-09-27T06:37:35;94578.66;;;20.37;53.07
10476;BME280;26166;48.264;11.436;2022-09-27T06:40:35;94580.25;;;20.38;53.15
10476;BME280;26166;48.264;11.436;2022-09-27T06:43:35;94594.66;;;20.37;52.93
10476;BME280;26166;48.264;11.436;2022-09-27T06:46:36;94598.91;;;20.38;53.05
10476;BME280;26166;48.264;11.436;2022-09-27T06:49:37;94600.50;;;20.39;53.60
10476;BME280;26166;48.264;11.436;2022-09-27T06:52:37;94603.72;;;20.41;53.20
10476;BME280;26166;48.264;11.436;2022-09-27T06:55:45;94603.97;;;20.40;52.95
10476;BME280;26166;48.264;11.436;2022-09-27T06:58:45;94594.38;;;20.39;53.00
10476;BME280;26166;48.264;11.436;2022-09-27T07:02:04;94603.44;;;20.38;53.22
10476;BME280;26166;48.264;11.436;2022-09-27T07:05:04;94604.25;;;20.38;53.14
10476;BME280;26166;48.264;11.436;2022-09-27T07:08:09;94609.56;;;20.38;53.07
10476;BME280;26166;48.264;11.436;2022-09-27T07:11:10;94610.66;;;20.37;53.04
10476;BME280;26166;48.264;11.436;2022-09-27T07:14:11;94609.06;;;20.36;53.14
10476;BME280;26166;48.264;11.436;2022-09-27T07:17:11;94609.06;;;20.36;53.05
10476;BME280;26166;48.264;11.436;2022-09-27T07:20:12;94606.38;;;20.36;53.14
10476;BME280;26166;48.264;11.436;2022-09-27T07:23:14;94610.91;;;20.36;53.01
10476;BME280;26166;48.264;11.436;2022-09-27T07:26:14;94614.09;;;20.38;53.92
10476;BME280;26166;48.264;11.436;2022-09-27T07:29:14;94612.75;;;20.40;54.42
10476;BME280;26166;48.264;11.436;2022-09-27T07:32:15;94612.22;;;20.44;54.15
10476;BME280;26166;48.264;11.436;2022-09-27T07:35:15;94618.66;;;20.48;54.16
10476;BME280;26166;48.264;11.436;2022-09-27T07:38:16;94615.72;;;20.49;54.02
10476;BME280;26166;48.264;11.436;2022-09-27T07:41:16;94620.25;;;20.49;53.76
10476;BME280;26166;48.264;11.436;2022-09-27T07:44:16;94621.03;;;20.49;53.75
10476;BME280;26166;48.264;11.436;2022-09-27T07:47:16;94633.84;;;20.47;53.43
10476;BME280;26166;48.264;11.436;2022-09-27T07:50:18;94640.50;;;20.45;53.49
10476;BME280;26166;48.264;11.436;2022-09-27T07:53:19;94659.16;;;20.45;53.61
10476;BME280;26166;48.264;11.436;2022-09-27T07:56:19;94670.91;;;20.44;53.53
10476;BME280;26166;48.264;11.436;2022-09-27T07:59:19;94663.97;;;20.42;53.46
10476;BME280;26166;48.264;11.436;2022-09-27T08:02:19;94665.84;;;20.42;53.62
10476;BME280;26166;48.264;11.436;2022-09-27T08:05:20;94678.38;;;20.41;53.43
10476;BME280;26166;48.264;11.436;2022-09-27T08:08:20;94672.25;;;20.41;53.22
10476;BME280;26166;48.264;11.436;2022-09-27T08:11:20;94678.38;;;20.41;53.19
10476;BME280;26166;48.264;11.436;2022-09-27T08:14:21;94683.72;;;20.41;53.52
10476;BME280;26166;48.264;11.436;2022-09-27T08:17:22;94681.03;;;20.41;53.31
10476;BME280;26166;48.264;11.436;2022-09-27T08:20:22;94685.31;;;20.42;54.31
10476;BME280;26166;48.264;11.436;2022-09-27T08:23:22;94689.59;;;20.49;55.43
10476;BME280;26166;48.264;11.436;2022-09-27T08:26:23;94691.22;;;20.50;55.44
10476;BME280;26166;48.264;11.436;2022-09-27T08:29:24;94701.31;;;20.94;55.87
10476;BME280;26166;48.264;11.436;2022-09-27T08:32:24;94702.06;;;21.95;54.53
10476;BME280;26166;48.264;11.436;2022-09-27T08:35:24;94700.00;;;23.28;50.43
10476;BME280;26166;48.264;11.436;2022-09-27T08:38:25;94695.06;;;24.26;47.71
10476;BME280;26166;48.264;11.436;2022-09-27T08:47:45;94699.06;;;26.23;43.59
10476;BME280;26166;48.264;11.436;2022-09-27T08:50:46;94700.84;;;26.64;42.54
10476;BME280;26166;48.264;11.436;2022-09-27T08:53:52;94706.94;;;26.70;41.80
10476;BME280;26166;48.264;11.436;2022-09-27T08:57:13;94705.41;;;26.41;42.15
10476;BME280;26166;48.264;11.436;2022-09-27T09:00:14;94707.13;;;26.37;41.98
10476;BME280;26166;48.264;11.436;2022-09-27T09:03:15;94709.25;;;26.26;42.09
10476;BME280;26166;48.264;11.436;2022-09-27T09:06:26;94710.13;;;25.85;42.91
10476;BME280;26166;48.264;11.436;2022-09-27T09:10:32;94701.72;;;25.46;43.68
10476;BME280;26166;48.264;11.436;2022-09-27T09:12:59;94711.25;;;24.59;45.17
10476;BME280;26166;48.264;11.436;2022-09-27T09:19:10;94713.75;;;23.94;46.72
10476;BME280;26166;48.264;11.436;2022-09-27T09:22:19;94718.78;;;23.76;47.14
10476;BME280;26166;48.264;11.436;2022-09-27T09:29:23;94706.78;;;23.45;47.56
10476;BME280;26166;48.264;11.436;2022-09-27T09:35:14;94725.34;;;23.12;48.19
10476;BME280;26166;48.264;11.436;2022-09-27T09:38:20;94723.03;;;23.00;49.54
10476;BME280;26166;48.264;11.436;2022-09-27T09:41:27;94726.31;;;22.92;48.96
10476;BME280;26166;48.264;11.436;2022-09-27T09:44:30;94727.72;;;22.84;49.40
10476;BME280;26166;48.264;11.436;2022-09-27T09:47:40;94721.25;;;22.90;49.73
10476;BME280;26166;48.264;11.436;2022-09-27T09:50:42;94726.69;;;22.80;49.29
10476;BME280;26166;48.264;11.436;2022-09-27T09:53:44;94734.28;;;22.68;49.40
10476;BME280;26166;48.264;11.436;2022-09-27T09:56:48;94737.81;;;22.58;49.63
10476;BME280;26166;48.264;11.436;2022-09-27T10:03:09;94740.13;;;22.36;49.84
10476;BME280;26166;48.264;11.436;2022-09-27T10:06:10;94748.97;;;22.26;49.96
10476;BME280;26166;48.264;11.436;2022-09-27T10:09:14;94744.25;;;22.18;50.44
10476;BME280;26166;48.264;11.436;2022-09-27T10:12:15;94746.91;;;22.08;50.67
10476;BME280;26166;48.264;11.436;2022-09-27T10:15:17;94746.44;;;22.01;50.77
10476;BME280;26166;48.264;11.436;2022-09-27T10:18:17;94752.84;;;21.95;50.81
10476;BME280;26166;48.264;11.436;2022-09-27T10:21:19;94751.28;;;21.88;50.77
10476;BME280;26166;48.264;11.436;2022-09-27T10:24:20;94755.59;;;21.84;50.84
10476;BME280;26166;48.264;11.436;2022-09-27T10:27:21;94755.63;;;21.79;51.34
10476;BME280;26166;48.264;11.436;2022-09-27T10:30:32;94755.06;;;21.77;51.52
10476;BME280;26166;48.264;11.436;2022-09-27T10:33:34;94762.03;;;21.73;51.44
10476;BME280;26166;48.264;11.436;2022-09-27T10:36:36;94760.97;;;21.69;51.51
10476;BME280;26166;48.264;11.436;2022-09-27T10:39:40;94764.22;;;21.66;51.61
10476;BME280;26166;48.264;11.436;2022-09-27T10:42:40;94760.19;;;21.63;51.70
10476;BME280;26166;48.264;11.436;2022-09-27T10:45:40;94762.59;;;21.60;51.54
10476;BME280;26166;48.264;11.436;2022-09-27T10:48:41;94746.34;;;21.56;51.81
10476;BME280;26166;48.264;11.436;2022-09-27T10:51:41;94755.19;;;21.52;52.24
10476;BME280;26166;48.264;11.436;2022-09-27T10:54:42;94759.47;;;21.48;52.20
10476;BME280;26166;48.264;11.436;2022-09-27T10:57:51;94762.66;;;21.45;51.86
10476;BME280;26166;48.264;11.436;2022-09-27T11:00:54;94775.75;;;21.41;51.97
10476;BME280;26166;48.264;11.436;2022-09-27T11:03:57;94770.16;;;21.37;52.23
10476;BME280;26166;48.264;11.436;2022-09-27T11:07:14;94772.31;;;21.35;52.41
10476;BME280;26166;48.264;11.436;2022-09-27T11:10:29;94765.91;;;21.31;52.53
10476;BME280;26166;48.264;11.436;2022-09-27T11:13:30;94761.84;;;21.29;52.28
10476;BME280;26166;48.264;11.436;2022-09-27T11:16:46;94751.72;;;21.26;52.29
10476;BME280;26166;48.264;11.436;2022-09-27T11:26:21;94747.44;;;21.20;52.39
10476;BME280;26166;48.264;11.436;2022-09-27T11:48:33;94773.91;;;21.06;52.54
10476;BME280;26166;48.264;11.436;2022-09-27T11:51:43;94772.31;;;21.05;52.60
10476;BME280;26166;48.264;11.436;2022-09-27T11:55:00;94769.09;;;21.03;52.65
10476;BME280;26166;48.264;11.436;2022-09-27T12:10:37;94775.50;;;20.97;52.89
10476;BME280;26166;48.264;11.436;2022-09-27T12:13:40;94766.97;;;20.95;52.73
10476;BME280;26166;48.264;11.436;2022-09-27T12:16:42;94778.69;;;20.94;52.92
10476;BME280;26166;48.264;11.436;2022-09-27T12:19:44;94772.56;;;20.93;52.94
10476;BME280;26166;48.264;11.436;2022-09-27T12:25:53;94761.38;;;20.91;52.75
10476;BME280;26166;48.264;11.436;2022-09-27T12:28:57;94754.44;;;20.90;52.79
10476;BME280;26166;48.264;11.436;2022-09-27T12:35:16;94745.88;;;20.88;53.00
10476;BME280;26166;48.264;11.436;2022-09-27T12:38:18;94732.81;;;20.86;52.92
10476;BME280;26166;48.264;11.436;2022-09-27T12:41:22;94732.81;;;20.86;52.89
10476;BME280;26166;48.264;11.436;2022-09-27T12:44:23;94726.69;;;20.86;52.93
10476;BME280;26166;48.264;11.436;2022-09-27T12:47:28;94725.88;;;20.85;52.95
10476;BME280;26166;48.264;11.436;2022-09-27T12:50:42;94728.00;;;20.83;53.07
10476;BME280;26166;48.264;11.436;2022-09-27T13:00:21;94728.53;;;20.80;53.25
10476;BME280;26166;48.264;11.436;2022-09-27T13:09:33;94738.41;;;20.80;52.97
10476;BME280;26166;48.264;11.436;2022-09-27T13:12:37;94717.34;;;20.78;53.20
10476;BME280;26166;48.264;11.436;2022-09-27T13:15:41;94720.81;;;20.79;52.97
10476;BME280;26166;48.264;11.436;2022-09-27T13:18:50;94713.09;;;20.77;53.20
10476;BME280;26166;48.264;11.436;2022-09-27T13:21:53;94708.81;;;20.76;53.07
10476;BME280;26166;48.264;11.436;2022-09-27T13:24:53;94714.16;;;20.76;53.30
10476;BME280;26166;48.264;11.436;2022-09-27T13:27:53;94709.88;;;20.75;53.23
10476;BME280;26166;48.264;11.436;2022-09-27T13:30:54;94706.41;;;20.75;53.30
10476;BME280;26166;48.264;11.436;2022-09-27T13:33:55;94696.00;;;20.73;53.24
10476;BME280;26166;48.264;11.436;2022-09-27T13:36:55;94688.00;;;20.73;53.26
10476;BME280;26166;48.264;11.436;2022-09-27T13:46:17;94704.25;;;20.72;53.29
10476;BME280;26166;48.264;11.436;2022-09-27T13:49:30;94701.88;;;20.70;53.39
10476;BME280;26166;48.264;11.436;2022-09-27T13:52:32;94701.88;;;20.70;53.34
10476;BME280;26166;48.264;11.436;2022-09-27T13:55:38;94699.19;;;20.70;53.38
10476;BME280;26166;48.264;11.436;2022-09-27T13:58:50;94708.00;;;20.71;53.21
10476;BME280;26166;48.264;11.436;2022-09-27T14:01:52;94712.53;;;20.70;53.34
10476;BME280;26166;48.264;11.436;2022-09-27T14:04:54;94717.06;;;20.70;53.51
10476;BME280;26166;48.264;11.436;2022-09-27T14:07:55;94726.94;;;20.69;53.34
10476;BME280;26166;48.264;11.436;2022-09-27T14:10:59;94712.81;;;20.69;53.34
10476;BME280;26166;48.264;11.436;2022-09-27T14:14:00;94725.34;;;20.68;53.41
10476;BME280;26166;48.264;11.436;2022-09-27T14:17:05;94725.34;;;20.68;53.49
10476;BME280;26166;48.264;11.436;2022-09-27T14:20:27;94721.91;;;20.68;53.46
10476;BME280;26166;48.264;11.436;2022-09-27T14:23:26;94729.91;;;20.68;53.50
10476;BME280;26166;48.264;11.436;2022-09-27T14:26:27;94732.81;;;20.66;53.27
10476;BME280;26166;48.264;11.436;2022-09-27T14:29:30;94732.81;;;20.66;53.52
10476;BME280;26166;48.264;11.436;2022-09-27T14:32:31;94727.47;;;20.66;53.33
10476;BME280;26166;48.264;11.436;2022-09-27T14:35:32;94738.94;;;20.66;53.22
10476;BME280;26166;48.264;11.436;2022-09-27T14:38:52;94727.22;;;20.68;53.27
10476;BME280;26166;48.264;11.436;2022-09-27T14:41:52;94748.28;;;20.69;53.41
10476;BME280;26166;48.264;11.436;2022-09-27T14:44:54;94737.63;;;20.69;53.32
10476;BME280;26166;48.264;11.436;2022-09-27T14:47:56;94741.88;;;20.70;53.33
10476;BME280;26166;48.264;11.436;2022-09-27T14:54:17;94724.81;;;20.71;53.36
10476;BME280;26166;48.264;11.436;2022-09-27T14:57:18;94730.69;;;20.73;54.15
10476;BME280;26166;48.264;11.436;2022-09-27T15:00:20;94723.22;;;20.75;54.44
10476;BME280;26166;48.264;11.436;2022-09-27T15:03:22;94723.44;;;21.35;54.92
10476;BME280;26166;48.264;11.436;2022-09-27T15:06:23;94727.25;;;22.38;53.44
10476;BME280;26166;48.264;11.436;2022-09-27T15:09:24;94719.41;;;23.68;50.30
10476;BME280;26166;48.264;11.436;2022-09-27T15:12:26;94713.84;;;24.64;47.62
10476;BME280;26166;48.264;11.436;2022-09-27T15:15:27;94714.06;;;25.47;46.00
10476;BME280;26166;48.264;11.436;2022-09-27T15:18:38;94720.16;;;25.94;44.06
10476;BME280;26166;48.264;11.436;2022-09-27T15:21:39;94714.31;;;25.78;44.35
10476;BME280;26166;48.264;11.436;2022-09-27T15:24:43;94726.25;;;25.99;43.81
10476;BME280;26166;48.264;11.436;2022-09-27T15:27:51;94727.81;;;26.14;42.82
10476;BME280;26166;48.264;11.436;2022-09-27T15:30:53;94731.00;;;25.88;42.73
10476;BME280;26166;48.264;11.436;2022-09-27T15:33:55;94730.41;;;25.50;43.55
10476;BME280;26166;48.264;11.436;2022-09-27T15:36:56;94745.28;;;25.15;44.13
10476;BME280;26166;48.264;11.436;2022-09-27T15:43:30;94769.03;;;23.89;46.49
10476;BME280;26166;48.264;11.436;2022-09-27T15:46:35;94769.56;;;23.62;47.22
10476;BME280;26166;48.264;11.436;2022-09-27T15:49:36;94776.22;;;23.41;47.22
10476;BME280;26166;48.264;11.436;2022-09-27T15:52:40;94749.31;;;23.27;47.80
10476;BME280;26166;48.264;11.436;2022-09-27T15:55:42;94740.34;;;23.13;48.17
10476;BME280;26166;48.264;11.436;2022-09-27T15:58:44;94744.75;;;22.99;48.29
10476;BME280;26166;48.264;11.436;2022-09-27T16:01:44;94744.28;;;22.91;48.54
10476;BME280;26166;48.264;11.436;2022-09-27T16:04:44;94756.94;;;22.81;48.90
10476;BME280;26166;48.264;11.436;2022-09-27T16:07:45;94757.50;;;22.73;48.83
10476;BME280;26166;48.264;11.436;2022-09-27T16:10:47;94762.13;;;22.67;48.96
10476;BME280;26166;48.264;11.436;2022-09-27T16:13:47;94760.03;;;22.59;49.34
10476;BME280;26166;48.264;11.436;2022-09-27T16:16:50;94773.44;;;22.54;49.72
10476;BME280;26166;48.264;11.436;2022-09-27T16:19:51;94782.56;;;22.48;49.43
10476;BME280;26166;48.264;11.436;2022-09-27T16:22:51;94771.91;;;22.42;49.59
10476;BME280;26166;48.264;11.436;2022-09-27T16:25:52;94778.13;;;22.33;50.21
10476;BME280;26166;48.264;11.436;2022-09-27T16:28:52;94786.44;;;22.26;50.14
10476;BME280;26166;48.264;11.436;2022-09-27T16:31:53;94792.34;;;22.23;49.90
10476;BME280;26166;48.264;11.436;2022-09-27T16:34:53;94779.25;;;22.16;50.30
10476;BME280;26166;48.264;11.436;2022-09-27T16:37:53;94772.06;;;22.07;50.32
10476;BME280;26166;48.264;11.436;2022-09-27T16:40:58;94763.78;;;22.03;50.45
10476;BME280;26166;48.264;11.436;2022-09-27T16:43:58;94769.16;;;21.98;50.64
10476;BME280;26166;48.264;11.436;2022-09-27T16:46:58;94767.31;;;21.94;50.86
10476;BME280;26166;48.264;11.436;2022-09-27T16:49:59;94768.41;;;21.87;50.75
10476;BME280;26166;48.264;11.436;2022-09-27T16:53:17;94781.78;;;21.82;51.10
10476;BME280;26166;48.264;11.436;2022-09-27T16:56:17;94805.31;;;21.80;51.06
10476;BME280;26166;48.264;11.436;2022-09-27T16:59:19;94796.53;;;21.75;51.41
10476;BME280;26166;48.264;11.436;2022-09-27T17:02:20;94794.09;;;21.73;51.26
10476;BME280;26166;48.264;11.436;2022-09-27T17:05:20;94785.03;;;21.69;51.39
10476;BME280;26166;48.264;11.436;2022-09-27T17:08:26;94789.34;;;21.65;51.35
10476;BME280;26166;48.264;11.436;2022-09-27T17:11:26;94796.81;;;21.63;51.52
10476;BME280;26166;48.264;11.436;2022-09-27T17:14:27;94800.84;;;21.60;51.64
10476;BME280;26166;48.264;11.436;2022-09-27T17:17:27;94802.97;;;21.58;51.50
10476;BME280;26166;48.264;11.436;2022-09-27T17:20:27;94808.03;;;21.55;51.62
10476;BME280;26166;48.264;11.436;2022-09-27T17:23:28;94794.69;;;21.50;51.69
10476;BME280;26166;48.264;11.436;2022-09-27T17:26:29;94800.56;;;21.47;51.78
10476;BME280;26166;48.264;11.436;2022-09-27T17:29:30;94802.72;;;21.45;52.12
10476;BME280;26166;48.264;11.436;2022-09-27T17:32:31;94790.44;;;21.44;52.05
10476;BME280;26166;48.264;11.436;2022-09-27T17:35:31;94792.06;;;21.39;51.97
10476;BME280;26166;48.264;11.436;2022-09-27T17:38:31;94796.06;;;21.37;52.07
10476;BME280;26166;48.264;11.436;2022-09-27T17:41:32;94802.75;;;21.34;52.10
10476;BME280;26166;48.264;11.436;2022-09-27T17:44:33;94793.94;;;21.34;52.21
10476;BME280;26166;48.264;11.436;2022-09-27T17:47:33;94798.75;;;21.32;52.29
10476;BME280;26166;48.264;11.436;2022-09-27T17:50:54;94803.78;;;21.28;52.30
10476;BME280;26166;48.264;11.436;2022-09-27T17:53:56;94800.03;;;21.24;52.04
10476;BME280;26166;48.264;11.436;2022-09-27T17:56:58;94798.44;;;21.23;51.67
10476;BME280;26166;48.264;11.436;2022-09-27T18:00:00;94803.28;;;21.21;51.73
10476;BME280;26166;48.264;11.436;2022-09-27T18:03:02;94807.81;;;21.21;51.72
10476;BME280;26166;48.264;11.436;2022-09-27T18:06:05;94807.28;;;21.19;51.75
10476;BME280;26166;48.264;11.436;2022-09-27T18:09:06;94807.28;;;21.19;52.00
10476;BME280;26166;48.264;11.436;2022-09-27T18:12:10;94804.59;;;21.19;51.89
10476;BME280;26166;48.264;11.436;2022-09-27T18:15:14;94796.88;;;21.17;51.74